Time;durP1;ratioP1;P1;durP2;ratioP2;P2;SDS_P1;SDS_P2;PMS_P1;PMS_P2;Temp;Humidity;BMP_temperature;BMP_pressure;BME280_temperature;BME280_humidity;BME280_pressure;Samples;Min_cycle;Max_cycle;Signal;HPM_P1;HPM_P2
2023/07/10 00:00:06;;;;;;;37.42;17.23;;;23.20;99.90;;;;;;5072989;28;20170;-51
2023/07/10 00:02:31;;;;;;;32.05;17.08;;;23.20;99.90;;;;;;5072816;28;20565;-50
2023/07/10 00:04:57;;;;;;;26.45;17.27;;;23.10;99.90;;;;;;5072820;28;20173;-50
2023/07/10 00:07:22;;;;;;;26.08;16.65;;;23.10;99.90;;;;;;5072577;28;20177;-50
2023/07/10 00:09:49;;;;;;;32.95;17.05;;;23.10;99.90;;;;;;5072444;28;20206;-51
2023/07/10 00:12:20;;;;;;;34.70;18.40;;;23.10;99.90;;;;;;5072679;28;20641;-50
2023/07/10 00:14:45;;;;;;;28.88;18.13;;;23.10;99.90;;;;;;5072680;28;20173;-51
2023/07/10 00:17:13;;;;;;;35.70;17.27;;;23.10;99.90;;;;;;5073016;28;20216;-51
2023/07/10 00:19:41;;;;;;;32.60;15.88;;;23.10;99.90;;;;;;5073296;28;20166;-51
2023/07/10 00:22:07;;;;;;;38.88;17.20;;;23.00;99.90;;;;;;5054953;28;20198;-51
2023/07/10 00:24:32;;;;;;;38.35;17.02;;;22.90;99.90;;;;;;5072453;28;20180;-50
2023/07/10 00:26:58;;;;;;;33.10;16.95;;;22.90;99.90;;;;;;5072353;28;20170;-51
2023/07/10 00:29:31;;;;;;;35.25;15.20;;;22.90;99.90;;;;;;5072462;28;20174;-51
2023/07/10 00:31:58;;;;;;;26.65;15.18;;;22.80;99.90;;;;;;5072678;28;20173;-51
2023/07/10 00:34:25;;;;;;;38.42;17.67;;;22.90;99.90;;;;;;5072488;28;20177;-51
2023/07/10 00:36:51;;;;;;;34.65;16.58;;;22.60;99.90;;;;;;5072514;28;20169;-51
2023/07/10 00:39:22;;;;;;;30.30;16.92;;;22.60;99.90;;;;;;5054346;28;20619;-51
2023/07/10 00:41:59;;;;;;;26.77;17.48;;;22.80;99.90;;;;;;5072043;28;20162;-50
2023/07/10 00:44:39;;;;;;;32.42;17.88;;;22.70;99.90;;;;;;5072372;28;20166;-50
2023/07/10 00:47:34;;;;;;;35.95;18.90;;;22.60;99.90;;;;;;5071960;28;20158;-50
2023/07/10 00:50:26;;;;;;;32.42;18.17;;;22.60;99.90;;;;;;5071923;28;20166;-50
2023/07/10 00:52:53;;;;;;;34.92;19.30;;;22.40;99.90;;;;;;5072025;28;20166;-50
2023/07/10 00:55:25;;;;;;;31.42;17.60;;;22.50;99.90;;;;;;5071938;28;20193;-50
2023/07/10 00:58:05;;;;;;;29.13;17.67;;;22.50;99.90;;;;;;5072269;28;20162;-50
2023/07/10 01:00:33;;;;;;;28.50;17.95;;;22.50;99.90;;;;;;5054312;28;20252;-50
2023/07/10 01:02:59;;;;;;;30.95;18.30;;;22.50;99.90;;;;;;5072017;28;20364;-49
2023/07/10 01:05:29;;;;;;;24.10;17.42;;;22.50;99.90;;;;;;5071790;28;20232;-50
2023/07/10 01:07:58;;;;;;;25.88;17.83;;;22.20;99.90;;;;;;5071746;28;20170;-49
2023/07/10 01:10:24;;;;;;;32.88;18.38;;;22.30;99.90;;;;;;5071666;28;20241;-49
2023/07/10 01:12:50;;;;;;;20.17;16.88;;;22.40;99.90;;;;;;5071782;28;20224;-50
2023/07/10 01:15:17;;;;;;;25.17;17.70;;;22.30;99.90;;;;;;5071672;28;20166;-50
2023/07/10 01:17:42;;;;;;;31.23;18.80;;;22.30;99.90;;;;;;5071581;28;20169;-50
2023/07/10 01:20:43;;;;;;;26.00;19.35;;;22.20;99.90;;;;;;5072083;28;20181;-50
2023/07/10 01:23:09;;;;;;;27.65;20.33;;;22.20;99.90;;;;;;5072064;28;20210;-50
2023/07/10 01:26:01;;;;;;;32.70;18.65;;;22.20;99.90;;;;;;5071486;28;20181;-50
2023/07/10 01:28:28;;;;;;;27.27;20.27;;;22.20;99.90;;;;;;5067037;28;20217;-50
2023/07/10 01:30:56;;;;;;;28.83;19.38;;;22.30;99.90;;;;;;5071499;28;20165;-49
2023/07/10 01:33:26;;;;;;;30.40;21.90;;;22.20;99.90;;;;;;5071800;28;20252;-52
2023/07/10 01:35:55;;;;;;;25.48;20.77;;;22.20;99.90;;;;;;5071515;28;20271;-52
2023/07/10 01:38:31;;;;;;;26.40;21.40;;;22.20;99.90;;;;;;5070953;28;20173;-52
2023/07/10 01:41:00;;;;;;;28.23;20.90;;;22.20;99.90;;;;;;5071404;28;20653;-52
2023/07/10 01:43:25;;;;;;;24.38;19.85;;;22.10;99.90;;;;;;5071454;28;20198;-51
2023/07/10 01:45:51;;;;;;;30.55;20.65;;;22.10;99.90;;;;;;5071454;28;20335;-51
2023/07/10 01:48:20;;;;;;;32.80;21.27;;;22.20;99.90;;;;;;5071346;28;20170;-51
2023/07/10 01:50:46;;;;;;;30.10;19.30;;;22.30;99.90;;;;;;5071330;28;20211;-51
2023/07/10 01:53:12;;;;;;;32.00;20.60;;;22.20;99.90;;;;;;5071249;28;20178;-50
2023/07/10 01:55:45;;;;;;;27.98;18.77;;;22.40;99.90;;;;;;5071736;28;20227;-51
2023/07/10 01:58:12;;;;;;;29.85;19.45;;;22.10;99.90;;;;;;5071623;28;20174;-50
2023/07/10 02:00:39;;;;;;;28.75;18.55;;;22.30;99.90;;;;;;5071595;28;20584;-52
2023/07/10 02:03:05;;;;;;;25.80;18.27;;;22.20;99.90;;;;;;5071422;28;20708;-49
2023/07/10 02:05:30;;;;;;;27.30;17.80;;;22.20;99.90;;;;;;5071198;28;20209;-51
2023/07/10 02:07:56;;;;;;;27.83;19.38;;;22.10;99.90;;;;;;5053215;28;20162;-51
2023/07/10 02:10:21;;;;;;;25.83;18.85;;;22.10;99.90;;;;;;5071062;28;20217;-51
2023/07/10 02:12:47;;;;;;;31.27;19.80;;;22.00;99.90;;;;;;5071125;28;20201;-51
2023/07/10 02:15:12;;;;;;;23.30;20.55;;;22.00;99.90;;;;;;5071029;28;20166;-51
2023/07/10 02:17:38;;;;;;;28.85;21.38;;;21.80;99.90;;;;;;5071477;28;20169;-51
2023/07/10 02:20:05;;;;;;;23.38;20.58;;;21.80;99.90;;;;;;5071055;28;20192;-51
2023/07/10 02:22:31;;;;;;;27.90;20.67;;;21.90;99.90;;;;;;5070999;28;20266;-51
2023/07/10 02:24:57;;;;;;;29.13;21.15;;;21.90;99.90;;;;;;5070914;28;20698;-51
2023/07/10 02:27:22;;;;;;;30.20;21.95;;;21.90;99.90;;;;;;5071191;28;20528;-51
2023/07/10 02:29:48;;;;;;;31.13;22.23;;;21.90;99.90;;;;;;5071210;28;20299;-51
2023/07/10 02:32:13;;;;;;;24.60;20.67;;;21.90;99.90;;;;;;5071022;28;20637;-51
2023/07/10 02:34:39;;;;;;;23.25;20.35;;;21.90;99.90;;;;;;5071316;28;20162;-51
2023/07/10 02:37:04;;;;;;;30.83;22.38;;;21.80;99.90;;;;;;5070845;28;20174;-51
2023/07/10 02:39:30;;;;;;;30.80;19.92;;;21.70;99.90;;;;;;5070807;28;20166;-50
2023/07/10 02:41:56;;;;;;;28.00;20.90;;;21.60;99.90;;;;;;5070916;28;20174;-51
2023/07/10 02:44:21;;;;;;;30.00;21.00;;;21.70;99.90;;;;;;5070782;28;20185;-51
2023/07/10 02:46:47;;;;;;;26.83;20.50;;;21.60;99.90;;;;;;5070801;28;20170;-51
2023/07/10 02:49:12;;;;;;;29.40;21.58;;;21.60;99.90;;;;;;5070738;28;20660;-50
2023/07/10 02:51:38;;;;;;;29.35;21.75;;;21.60;99.90;;;;;;5074461;28;20216;-51
2023/07/10 02:54:11;;;;;;;26.98;21.02;;;21.60;99.90;;;;;;5074467;28;20697;-51
2023/07/10 02:56:37;;;;;;;29.48;21.00;;;21.60;99.90;;;;;;5074597;28;20219;-50
2023/07/10 02:59:02;;;;;;;23.50;18.58;;;21.60;99.90;;;;;;5074128;28;20174;-50
2023/07/10 03:01:28;;;;;;;25.38;18.60;;;21.80;99.90;;;;;;5073715;28;20249;-50
2023/07/10 03:03:53;;;;;;;26.00;18.25;;;21.70;99.90;;;;;;5074223;28;20213;-50
2023/07/10 03:06:20;;;;;;;26.88;17.70;;;21.60;99.90;;;;;;5074026;28;20158;-49
2023/07/10 03:08:47;;;;;;;26.73;17.27;;;21.50;99.90;;;;;;5073932;28;20177;-49
2023/07/10 03:11:13;;;;;;;20.95;16.05;;;21.50;99.90;;;;;;5073769;28;20577;-50
2023/07/10 03:13:39;;;;;;;19.75;15.95;;;21.50;99.90;;;;;;5074372;28;20166;-49
2023/07/10 03:16:07;;;;;;;22.58;16.38;;;21.40;99.90;;;;;;5073848;28;20166;-50
2023/07/10 03:18:33;;;;;;;28.52;17.63;;;21.50;99.90;;;;;;5055527;28;20170;-50
2023/07/10 03:20:58;;;;;;;23.42;17.05;;;21.50;99.90;;;;;;5073624;28;20177;-49
2023/07/10 03:23:24;;;;;;;28.17;17.55;;;21.60;99.90;;;;;;5073556;28;20206;-50
2023/07/10 03:25:50;;;;;;;27.95;17.65;;;21.50;99.90;;;;;;5073725;28;20196;-49
2023/07/10 03:28:16;;;;;;;29.27;19.25;;;21.40;99.90;;;;;;5073628;28;20194;-50
2023/07/10 03:30:42;;;;;;;29.92;20.58;;;21.40;99.90;;;;;;5073606;28;20197;-50
2023/07/10 03:33:08;;;;;;;31.75;20.83;;;21.30;99.90;;;;;;5073902;28;20170;-50
2023/07/10 03:35:34;;;;;;;35.28;21.98;;;21.30;99.90;;;;;;5073726;28;20504;-49
2023/07/10 03:37:59;;;;;;;31.50;21.52;;;21.30;99.90;;;;;;5073341;28;20243;-50
2023/07/10 03:40:25;;;;;;;30.52;21.58;;;21.20;99.90;;;;;;5073333;28;20223;-50
2023/07/10 03:42:50;;;;;;;32.03;21.55;;;21.20;99.90;;;;;;5073214;28;20557;-50
2023/07/10 03:45:16;;;;;;;40.28;24.40;;;21.10;99.90;;;;;;5073285;28;20622;-50
2023/07/10 03:47:42;;;;;;;41.35;24.05;;;21.00;99.90;;;;;;5073194;28;20649;-49
2023/07/10 03:50:10;;;;;;;34.33;23.85;;;21.10;99.90;;;;;;5073715;28;20193;-50
2023/07/10 03:52:35;;;;;;;38.58;24.67;;;21.00;99.90;;;;;;5073532;28;20166;-50
2023/07/10 03:55:01;;;;;;;34.20;23.55;;;21.10;99.90;;;;;;5073083;28;20533;-50
2023/07/10 03:57:27;;;;;;;36.33;23.25;;;21.00;99.90;;;;;;5073051;28;20166;-50
2023/07/10 03:59:52;;;;;;;40.50;22.55;;;21.10;99.90;;;;;;5055079;28;20174;-51
2023/07/10 04:02:18;;;;;;;32.88;22.85;;;21.10;99.90;;;;;;5072397;28;20211;-50
2023/07/10 04:04:44;;;;;;;33.55;22.75;;;21.10;99.90;;;;;;5072826;28;20176;-49
2023/07/10 04:07:09;;;;;;;37.03;21.98;;;21.10;99.90;;;;;;5055371;28;20170;-50
2023/07/10 04:09:35;;;;;;;32.05;21.98;;;21.00;99.90;;;;;;5072962;28;20174;-50
2023/07/10 04:12:01;;;;;;;32.53;21.23;;;21.10;99.90;;;;;;5072689;28;20633;-50
2023/07/10 04:14:27;;;;;;;32.35;18.70;;;21.10;99.90;;;;;;5072696;28;20178;-49
2023/07/10 04:16:52;;;;;;;27.58;18.55;;;21.00;99.90;;;;;;5072646;28;20170;-50
2023/07/10 04:19:19;;;;;;;24.02;17.17;;;21.10;99.90;;;;;;5072532;28;20193;-50
2023/07/10 04:21:45;;;;;;;31.40;16.95;;;21.10;99.90;;;;;;5072724;28;20166;-50
2023/07/10 04:24:11;;;;;;;28.85;15.80;;;21.00;99.90;;;;;;5072377;28;20178;-50
2023/07/10 04:26:37;;;;;;;23.55;14.57;;;21.00;99.90;;;;;;5073079;28;20231;-49
2023/07/10 04:29:05;;;;;;;20.55;13.27;;;20.90;99.90;;;;;;5072422;28;20617;-50
2023/07/10 04:31:31;;;;;;;22.90;11.50;;;21.00;99.90;;;;;;5072348;28;20189;-50
2023/07/10 04:33:57;;;;;;;18.85;12.07;;;20.80;99.90;;;;;;5072291;28;20162;-50
2023/07/10 04:36:23;;;;;;;16.52;12.57;;;20.80;99.90;;;;;;5072255;28;20174;-50
2023/07/10 04:38:49;;;;;;;20.65;12.13;;;20.80;99.90;;;;;;5072204;28;20177;-50
2023/07/10 04:41:18;;;;;;;19.00;11.07;;;21.00;99.90;;;;;;5072255;28;20174;-50
2023/07/10 04:43:43;;;;;;;18.52;9.93;;;20.90;99.90;;;;;;5072098;28;20298;-50
2023/07/10 04:46:13;;;;;;;15.82;9.45;;;20.80;99.90;;;;;;5072220;28;20208;-49
2023/07/10 04:48:38;;;;;;;16.52;8.63;;;21.00;99.90;;;;;;5072417;28;20162;-50
2023/07/10 04:51:07;;;;;;;17.05;9.15;;;20.90;99.90;;;;;;5071951;28;20621;-49
2023/07/10 04:53:33;;;;;;;18.50;8.20;;;20.90;99.90;;;;;;5071930;28;20540;-50
2023/07/10 04:56:01;;;;;;;15.00;7.65;;;21.00;99.90;;;;;;5072166;28;20575;-50
2023/07/10 04:58:28;;;;;;;15.77;7.38;;;21.00;99.90;;;;;;5054033;28;20539;-52
2023/07/10 05:00:56;;;;;;;13.15;7.18;;;21.00;99.90;;;;;;5071772;28;20162;-52
2023/07/10 05:03:22;;;;;;;12.73;8.30;;;21.00;99.90;;;;;;5071709;28;20675;-52
2023/07/10 05:05:58;;;;;;;15.73;7.70;;;21.00;99.90;;;;;;5071701;28;20224;-52
2023/07/10 05:08:26;;;;;;;15.57;8.23;;;21.00;99.90;;;;;;5053588;28;20655;-52
2023/07/10 05:10:54;;;;;;;18.05;7.47;;;21.00;99.90;;;;;;5071479;28;20232;-52
2023/07/10 05:13:21;;;;;;;12.90;6.88;;;21.00;99.90;;;;;;5070817;28;20531;-53
2023/07/10 05:15:48;;;;;;;17.05;7.38;;;21.10;99.90;;;;;;5071498;28;20177;-52
2023/07/10 05:18:14;;;;;;;11.10;6.72;;;21.10;99.90;;;;;;5071414;28;20212;-51
2023/07/10 05:20:42;;;;;;;18.63;6.95;;;21.10;99.90;;;;;;5071512;28;20186;-51
2023/07/10 05:23:08;;;;;;;12.82;7.05;;;21.10;99.90;;;;;;5071964;28;20205;-52
2023/07/10 05:25:34;;;;;;;15.18;7.35;;;21.10;99.90;;;;;;5071497;28;20173;-51
2023/07/10 05:28:01;;;;;;;15.38;6.95;;;21.00;99.90;;;;;;5071545;28;20212;-52
2023/07/10 05:30:27;;;;;;;11.18;6.40;;;20.90;99.90;;;;;;5053537;28;20751;-52
2023/07/10 05:32:52;;;;;;;13.75;6.88;;;20.80;99.90;;;;;;5071465;28;20676;-52
2023/07/10 05:35:18;;;;;;;13.20;6.68;;;21.00;99.90;;;;;;5053520;28;20169;-52
2023/07/10 05:37:43;;;;;;;14.98;7.13;;;20.80;99.90;;;;;;5071501;28;20161;-52
2023/07/10 05:40:09;;;;;;;17.70;8.02;;;20.90;99.90;;;;;;5071368;28;20619;-49
2023/07/10 05:42:35;;;;;;;18.55;7.30;;;20.90;99.90;;;;;;5071669;28;20736;-51
2023/07/10 05:45:00;;;;;;;14.35;7.10;;;20.90;99.90;;;;;;5071282;28;20174;-51
2023/07/10 05:47:26;;;;;;;14.18;7.30;;;20.90;99.90;;;;;;5071319;28;20227;-51
2023/07/10 05:49:51;;;;;;;15.05;7.60;;;21.00;99.90;;;;;;5071304;28;20626;-52
2023/07/10 05:52:17;;;;;;;15.93;7.80;;;21.00;99.90;;;;;;5071355;28;20259;-51
2023/07/10 05:54:42;;;;;;;14.13;7.38;;;21.00;99.90;;;;;;5071186;28;20256;-50
2023/07/10 05:57:08;;;;;;;13.80;8.15;;;21.00;99.90;;;;;;5071678;28;20198;-49
2023/07/10 05:59:33;;;;;;;17.42;7.90;;;20.90;99.90;;;;;;5071217;28;20196;-50
2023/07/10 06:01:59;;;;;;;17.00;7.85;;;21.10;99.90;;;;;;5071141;28;20646;-49
2023/07/10 06:04:24;;;;;;;12.85;7.82;;;21.30;99.90;;;;;;5071126;28;20261;-50
2023/07/10 06:06:50;;;;;;;16.98;9.52;;;21.40;99.90;;;;;;5071144;28;20602;-50
2023/07/10 06:09:17;;;;;;;14.13;8.07;;;21.40;99.90;;;;;;5070974;28;20642;-50
2023/07/10 06:11:42;;;;;;;14.77;7.95;;;21.60;99.90;;;;;;5031105;28;20301;-50
2023/07/10 06:14:08;;;;;;;14.40;8.50;;;21.60;99.90;;;;;;5031809;28;20219;-49
2023/07/10 06:16:34;;;;;;;19.42;9.95;;;21.50;99.90;;;;;;5031690;28;20491;-50
2023/07/10 06:18:59;;;;;;;15.00;8.07;;;21.70;99.90;;;;;;5031057;28;20168;-50
2023/07/10 06:21:25;;;;;;;15.10;8.13;;;21.70;99.90;;;;;;5031048;28;20167;-50
2023/07/10 06:23:50;;;;;;;15.35;8.93;;;21.60;99.90;;;;;;5031399;28;20211;-50
2023/07/10 06:26:16;;;;;;;15.73;8.52;;;21.70;99.90;;;;;;5035087;28;20167;-52
2023/07/10 06:28:41;;;;;;;17.17;8.80;;;21.80;99.90;;;;;;5034747;28;20171;-50
2023/07/10 06:31:10;;;;;;;13.82;8.65;;;21.70;99.90;;;;;;5035242;28;20195;-50
2023/07/10 06:33:37;;;;;;;14.88;7.65;;;22.00;99.90;;;;;;5035454;28;20186;-49
2023/07/10 06:36:04;;;;;;;16.02;8.55;;;22.30;99.90;;;;;;5034729;28;20164;-50
2023/07/10 06:38:30;;;;;;;17.17;8.32;;;22.30;99.90;;;;;;5034683;28;20167;-51
2023/07/10 06:40:56;;;;;;;12.05;8.52;;;22.30;99.90;;;;;;5034650;28;20194;-50
2023/07/10 06:43:22;;;;;;;15.30;8.63;;;22.20;99.90;;;;;;5034759;28;20231;-50
2023/07/10 06:45:48;;;;;;;10.10;7.80;;;22.30;99.90;;;;;;5034585;28;20163;-50
2023/07/10 06:48:14;;;;;;;11.60;7.88;;;22.50;99.90;;;;;;5034492;28;20233;-50
2023/07/10 06:50:40;;;;;;;14.00;7.05;;;22.60;99.90;;;;;;5034437;28;20163;-51
2023/07/10 06:53:06;;;;;;;12.48;7.40;;;22.50;99.90;;;;;;5034750;28;20167;-51
2023/07/10 06:55:32;;;;;;;14.07;6.93;;;22.30;99.90;;;;;;5033089;28;20171;-52
2023/07/10 06:57:58;;;;;;;10.95;6.15;;;22.30;99.90;;;;;;5034318;28;20163;-52
2023/07/10 07:00:23;;;;;;;9.75;6.28;;;22.30;99.90;;;;;;5034528;28;20669;-52
2023/07/10 07:02:49;;;;;;;14.30;6.65;;;22.20;99.90;;;;;;5034263;28;20561;-51
2023/07/10 07:05:15;;;;;;;12.90;6.35;;;22.40;99.90;;;;;;5034210;28;20172;-51
2023/07/10 07:07:40;;;;;;;8.70;5.18;;;22.50;99.90;;;;;;5034145;28;20254;-51
2023/07/10 07:10:14;;;;;;;11.60;6.15;;;22.50;99.90;;;;;;5047974;28;20220;-52
2023/07/10 07:12:41;;;;;;;9.57;5.90;;;22.80;99.90;;;;;;5073978;28;20161;-51
2023/07/10 07:15:08;;;;;;;12.60;6.05;;;22.70;99.90;;;;;;5074277;28;20589;-51
2023/07/10 07:17:33;;;;;;;12.07;5.35;;;22.90;99.90;;;;;;5074308;28;20162;-52
2023/07/10 07:19:59;;;;;;;8.82;5.20;;;22.90;99.90;;;;;;5073783;28;20170;-51
2023/07/10 07:22:25;;;;;;;10.60;6.43;;;22.90;99.90;;;;;;5073657;28;20177;-51
2023/07/10 07:24:50;;;;;;;9.20;5.80;;;23.10;99.90;;;;;;5073782;28;20755;-52
2023/07/10 07:27:16;;;;;;;7.15;5.47;;;22.70;99.90;;;;;;5073628;28;20617;-50
2023/07/10 07:29:42;;;;;;;9.65;6.05;;;22.80;99.90;;;;;;5073805;28;20174;-51
2023/07/10 07:32:10;;;;;;;7.90;5.57;;;23.10;99.90;;;;;;5074123;28;20169;-51
2023/07/10 07:34:36;;;;;;;9.32;4.97;;;23.20;99.90;;;;;;5074241;28;20268;-52
2023/07/10 07:37:04;;;;;;;8.27;4.93;;;23.20;99.90;;;;;;5072664;28;20209;-52
2023/07/10 07:39:31;;;;;;;7.28;5.03;;;22.90;99.90;;;;;;5073420;28;20184;-51
2023/07/10 07:41:58;;;;;;;6.68;5.07;;;22.90;99.90;;;;;;5055952;28;20170;-51
2023/07/10 07:44:23;;;;;;;9.05;4.50;;;23.10;99.90;;;;;;5073476;28;20182;-51
2023/07/10 07:46:49;;;;;;;7.05;4.82;;;23.30;99.90;;;;;;5073558;28;20525;-51
2023/07/10 07:49:14;;;;;;;8.13;4.50;;;23.40;99.90;;;;;;5073263;28;20625;-49
2023/07/10 07:51:40;;;;;;;11.32;4.88;;;23.50;99.90;;;;;;5073222;28;20572;-52
2023/07/10 07:54:09;;;;;;;6.00;4.57;;;23.40;99.90;;;;;;5073818;28;20166;-51
2023/07/10 07:56:34;;;;;;;10.90;5.00;;;23.70;99.90;;;;;;5073494;28;20176;-51
2023/07/10 07:59:00;;;;;;;7.05;4.60;;;24.00;99.90;;;;;;5073054;28;20522;-51
2023/07/10 08:01:26;;;;;;;9.43;4.60;;;24.00;99.90;;;;;;5073333;28;20170;-50
2023/07/10 08:03:52;;;;;;;10.38;4.53;;;24.10;99.90;;;;;;5072998;28;20205;-50
2023/07/10 08:06:17;;;;;;;6.38;3.90;;;24.10;99.90;;;;;;5072978;28;20223;-50
2023/07/10 08:08:44;;;;;;;14.02;4.22;;;24.00;99.90;;;;;;5073101;28;20260;-51
2023/07/10 08:11:09;;;;;;;8.77;3.95;;;24.30;99.90;;;;;;5072680;28;20274;-52
2023/07/10 08:13:35;;;;;;;5.82;3.60;;;24.20;99.90;;;;;;5073287;28;20177;-52
2023/07/10 08:16:01;;;;;;;9.73;4.18;;;24.20;99.90;;;;;;5072628;28;20168;-51
2023/07/10 08:18:26;;;;;;;5.85;3.40;;;24.30;99.90;;;;;;5072642;28;20170;-51
2023/07/10 08:21:03;;;;;;;7.38;4.10;;;24.30;99.90;;;;;;5072585;28;20168;-51
2023/07/10 08:23:30;;;;;;;8.63;3.80;;;24.20;99.90;;;;;;5070867;28;20548;-50
2023/07/10 08:25:55;;;;;;;4.85;3.60;;;24.70;99.90;;;;;;5072329;28;20161;-51
2023/07/10 08:28:21;;;;;;;9.27;4.05;;;24.70;99.90;;;;;;5072301;28;20578;-51
2023/07/10 08:30:46;;;;;;;6.20;3.25;;;24.50;99.90;;;;;;5072363;28;20166;-51
2023/07/10 08:33:12;;;;;;;6.03;3.92;;;24.40;99.90;;;;;;5072055;28;20603;-51
2023/07/10 08:35:37;;;;;;;6.50;4.05;;;24.40;99.90;;;;;;5072410;28;20157;-52
2023/07/10 08:38:03;;;;;;;7.65;3.47;;;24.50;99.90;;;;;;5072092;28;20165;-52
2023/07/10 08:40:30;;;;;;;4.82;3.03;;;24.50;99.90;;;;;;5071927;28;20195;-49
2023/07/10 08:42:57;;;;;;;5.25;3.17;;;24.30;99.90;;;;;;5072154;28;20209;-50
2023/07/10 08:45:35;;;;;;;4.53;3.10;;;24.60;99.90;;;;;;5054366;28;20629;-49
2023/07/10 08:48:12;;;;;;;4.57;2.65;;;24.80;99.90;;;;;;5053797;28;20178;-51
2023/07/10 08:50:40;;;;;;;4.15;2.67;;;24.80;99.90;;;;;;5071544;28;20346;-50
2023/07/10 08:53:16;;;;;;;4.63;2.47;;;25.00;99.90;;;;;;5071627;28;20181;-51
2023/07/10 08:56:04;;;;;;;3.67;2.88;;;25.10;99.90;;;;;;5071740;28;20165;-49
2023/07/10 08:58:34;;;;;;;3.83;2.10;;;25.00;99.90;;;;;;5071417;28;20188;-50
2023/07/10 09:01:02;;;;;;;5.30;2.30;;;25.10;99.90;;;;;;5071401;28;20245;-49
2023/07/10 09:03:46;;;;;;;4.72;2.03;;;25.20;99.90;;;;;;5071455;28;20563;-50
2023/07/10 09:06:51;;;;;;;4.93;2.22;;;25.20;99.90;;;;;;5054508;28;20161;-50
2023/07/10 09:09:42;;;;;;;3.60;2.05;;;25.10;99.90;;;;;;5056557;28;20173;-51
2023/07/10 09:12:17;;;;;;;2.90;2.10;;;25.10;99.90;;;;;;5071641;28;20629;-51
2023/07/10 09:14:45;;;;;;;6.07;2.15;;;24.90;99.90;;;;;;5054511;28;20180;-52
2023/07/10 09:18:08;;;;;;;1.92;1.60;;;25.30;99.90;;;;;;5071382;28;20162;-50
2023/07/10 09:20:36;;;;;;;5.25;2.10;;;25.00;99.90;;;;;;4954864;28;20181;-50
2023/07/10 09:23:08;;;;;;;3.22;1.98;;;25.30;99.90;;;;;;4970276;28;20204;-51
2023/07/10 09:25:37;;;;;;;3.60;1.92;;;25.30;99.90;;;;;;5036823;28;20181;-50
2023/07/10 09:28:02;;;;;;;4.93;2.25;;;25.40;99.90;;;;;;5053102;28;20180;-50
2023/07/10 09:30:51;;;;;;;4.93;1.73;;;25.30;99.90;;;;;;5071714;28;20394;-50
2023/07/10 09:33:20;;;;;;;3.28;2.03;;;25.50;99.90;;;;;;5053403;28;20181;-50
2023/07/10 09:35:47;;;;;;;3.38;1.77;;;25.70;99.90;;;;;;5071302;28;20223;-50
2023/07/10 09:38:14;;;;;;;5.82;2.05;;;25.60;99.90;;;;;;5036537;28;20204;-49
2023/07/10 09:40:46;;;;;;;6.07;1.77;;;25.60;99.90;;;;;;5071145;28;20170;-49
2023/07/10 09:43:23;;;;;;;5.25;2.13;;;25.60;99.90;;;;;;5070931;28;20296;-50
2023/07/10 09:45:51;;;;;;;2.10;1.58;;;25.60;99.90;;;;;;5070868;28;20168;-50
2023/07/10 09:48:25;;;;;;;2.88;1.95;;;25.90;99.90;;;;;;5071156;28;20169;-50
2023/07/10 09:50:51;;;;;;;3.40;2.17;;;25.90;99.90;;;;;;5070784;28;20640;-50
2023/07/10 09:53:28;;;;;;;3.95;2.13;;;25.80;99.90;;;;;;5071206;28;20169;-49
2023/07/10 09:55:54;;;;;;;4.75;2.47;;;25.70;99.90;;;;;;5070716;28;20165;-50
2023/07/10 09:58:19;;;;;;;4.00;2.10;;;25.60;99.90;;;;;;5070846;28;20166;-50
2023/07/10 10:00:48;;;;;;;4.15;1.83;;;26.10;99.90;;;;;;5074765;28;20169;-50
2023/07/10 10:03:31;;;;;;;3.33;2.10;;;26.00;99.90;;;;;;5074886;28;20684;-51
2023/07/10 10:05:59;;;;;;;3.72;1.80;;;25.90;99.90;;;;;;5074680;28;20536;-50
2023/07/10 10:08:27;;;;;;;6.43;2.22;;;26.10;99.90;;;;;;5075133;28;20166;-51
2023/07/10 10:11:34;;;;;;;4.40;1.95;;;26.40;99.90;;;;;;5074736;28;20227;-49
2023/07/10 10:14:03;;;;;;;4.82;1.98;;;26.20;99.90;;;;;;5046939;28;20666;-50
2023/07/10 10:16:41;;;;;;;3.28;2.17;;;26.30;99.90;;;;;;5074778;28;20165;-50
2023/07/10 10:19:16;;;;;;;5.30;2.30;;;26.50;99.90;;;;;;5075135;28;20218;-47
2023/07/10 10:21:42;;;;;;;2.97;1.70;;;26.30;99.90;;;;;;5074449;28;20564;-50
2023/07/10 10:24:13;;;;;;;5.55;2.13;;;26.50;99.90;;;;;;5074987;28;20248;-50
2023/07/10 10:26:38;;;;;;;4.05;2.22;;;26.70;99.90;;;;;;5074642;28;20564;-50
2023/07/10 10:29:33;;;;;;;3.95;2.40;;;26.70;99.90;;;;;;5074814;28;20178;-49
2023/07/10 10:32:23;;;;;;;2.67;2.00;;;26.90;99.90;;;;;;5074674;28;20161;-50
2023/07/10 10:35:03;;;;;;;5.68;2.40;;;26.90;99.90;;;;;;5074565;28;20579;-50
2023/07/10 10:38:19;;;;;;;5.28;2.60;;;26.80;99.90;;;;;;5056666;28;20169;-50
2023/07/10 10:41:12;;;;;;;6.90;2.95;;;27.10;99.90;;;;;;5031755;28;20633;-50
2023/07/10 10:43:48;;;;;;;4.13;2.15;;;27.10;99.90;;;;;;5074883;28;20213;-50
2023/07/10 10:46:50;;;;;;;4.10;2.42;;;27.10;99.90;;;;;;5074707;28;20227;-50
2023/07/10 10:49:28;;;;;;;4.40;2.65;;;27.10;99.90;;;;;;5074460;28;20169;-51
2023/07/10 10:52:18;;;;;;;3.72;2.13;;;27.40;99.90;;;;;;5074313;28;20165;-51
2023/07/10 10:54:51;;;;;;;6.45;2.47;;;27.30;99.90;;;;;;5074344;28;20176;-51
2023/07/10 10:57:58;;;;;;;4.72;2.38;;;27.70;99.90;;;;;;5074267;28;20165;-50
2023/07/10 11:00:46;;;;;;;5.10;2.38;;;27.40;99.90;;;;;;5074467;28;20185;-51
2023/07/10 11:03:24;;;;;;;5.18;2.50;;;27.20;99.90;;;;;;5074378;28;20567;-51
2023/07/10 11:05:54;;;;;;;3.08;2.08;;;27.60;99.90;;;;;;5074165;28;20271;-50
2023/07/10 11:08:44;;;;;;;2.97;2.28;;;27.90;99.90;;;;;;5074054;28;20303;-50
2023/07/10 11:11:22;;;;;;;6.30;2.60;;;27.90;99.90;;;;;;5072536;28;20577;-51
2023/07/10 11:13:48;;;;;;;4.25;2.08;;;27.50;99.90;;;;;;5055749;28;20175;-51
2023/07/10 11:16:14;;;;;;;6.55;2.50;;;26.90;99.90;;;;;;5073876;28;20165;-51
2023/07/10 11:18:40;;;;;;;4.43;2.38;;;27.20;99.90;;;;;;5073801;28;20169;-50
2023/07/10 11:21:06;;;;;;;9.40;2.65;;;27.40;99.90;;;;;;5074451;28;20166;-50
2023/07/10 11:23:43;;;;;;;6.38;2.50;;;27.20;99.90;;;;;;5073778;28;20211;-50
2023/07/10 11:26:15;;;;;;;4.30;2.33;;;27.00;99.90;;;;;;5073836;28;20168;-50
2023/07/10 11:29:16;;;;;;;6.13;2.28;;;27.30;99.90;;;;;;5073596;28;20170;-51
2023/07/10 11:31:42;;;;;;;4.47;2.10;;;27.40;99.90;;;;;;5073567;28;20169;-52
2023/07/10 11:34:07;;;;;;;6.22;2.10;;;27.70;99.90;;;;;;5073521;28;20161;-52
2023/07/10 11:36:33;;;;;;;3.90;2.20;;;27.80;99.90;;;;;;5074100;28;20248;-52
2023/07/10 11:39:11;;;;;;;4.60;2.10;;;27.90;99.90;;;;;;5073450;28;20544;-52
2023/07/10 11:41:44;;;;;;;6.55;2.25;;;27.40;99.90;;;;;;5073940;28;20193;-51
2023/07/10 11:44:18;;;;;;;5.20;2.30;;;27.70;99.90;;;;;;5073089;28;20205;-52
2023/07/10 11:47:05;;;;;;;6.30;1.98;;;28.00;99.90;;;;;;5073356;28;20161;-52
2023/07/10 11:49:40;;;;;;;3.50;2.10;;;28.50;99.90;;;;;;5073341;28;20170;-52
2023/07/10 11:52:14;;;;;;;2.00;1.80;;;28.30;99.90;;;;;;5073460;28;20165;-52
2023/07/10 11:54:58;;;;;;;4.07;2.00;;;28.40;99.90;;;;;;5073109;28;20169;-51
2023/07/10 11:57:25;;;;;;;3.25;1.90;;;28.40;99.90;;;;;;5073103;28;20165;-50
2023/07/10 11:59:56;;;;;;;4.15;2.08;;;28.60;99.90;;;;;;5072838;28;20158;-52
2023/07/10 12:02:44;;;;;;;6.88;2.03;;;28.80;99.90;;;;;;5072903;28;20193;-51
2023/07/10 12:05:41;;;;;;;5.68;1.95;;;28.40;99.80;;;;;;5073236;28;20172;-51
2023/07/10 12:08:07;;;;;;;4.28;1.67;;;28.10;99.90;;;;;;5018370;28;20177;-51
2023/07/10 12:10:45;;;;;;;3.95;2.10;;;28.20;99.00;;;;;;5072460;28;20217;-52
2023/07/10 12:13:29;;;;;;;2.83;1.70;;;28.50;98.70;;;;;;5072639;28;20169;-51
2023/07/10 12:15:58;;;;;;;4.03;1.70;;;28.60;98.80;;;;;;5072444;28;20179;-51
2023/07/10 12:18:29;;;;;;;2.47;1.60;;;28.90;98.40;;;;;;5072434;28;20633;-51
2023/07/10 12:20:55;;;;;;;4.38;2.28;;;28.90;99.40;;;;;;5072243;28;20176;-51
2023/07/10 12:23:20;;;;;;;5.82;2.20;;;28.90;98.10;;;;;;5072066;28;20201;-52
2023/07/10 12:25:48;;;;;;;4.85;1.98;;;28.60;97.40;;;;;;5071736;28;20686;-52
2023/07/10 12:28:15;;;;;;;4.57;1.92;;;28.70;98.20;;;;;;5072473;28;20201;-51
2023/07/10 12:30:41;;;;;;;6.13;2.00;;;28.60;95.50;;;;;;5071773;28;20629;-51
2023/07/10 12:33:49;;;;;;;2.72;1.83;;;28.60;94.90;;;;;;5072446;28;20192;-52
2023/07/10 12:36:54;;;;;;;3.45;1.60;;;28.90;95.20;;;;;;4992339;28;20510;-50
2023/07/10 12:39:20;;;;;;;6.93;2.03;;;29.10;95.60;;;;;;4971141;28;20604;-51
2023/07/10 12:41:50;;;;;;;4.75;2.17;;;29.10;96.10;;;;;;4971040;28;20176;-52
2023/07/10 12:44:22;;;;;;;5.45;1.90;;;29.00;95.30;;;;;;5021858;28;20213;-51
2023/07/10 12:47:02;;;;;;;5.50;1.75;;;28.70;95.90;;;;;;5071797;28;20162;-51
2023/07/10 12:49:30;;;;;;;5.32;1.90;;;28.60;95.50;;;;;;5071618;28;20169;-50
2023/07/10 12:51:59;;;;;;;5.43;2.42;;;28.60;96.00;;;;;;5071844;28;20184;-51